createdAt,value
2022-09-12T00:02:18.725Z,100.00
2022-09-12T00:05:20.534Z,100.00
2022-09-12T00:08:22.114Z,100.00
2022-09-12T00:11:26.218Z,100.00
2022-09-12T00:14:27.775Z,100.00
2022-09-12T00:17:29.374Z,100.00
2022-09-12T00:20:30.912Z,100.00
2022-09-12T00:23:32.996Z,100.00
2022-09-12T00:26:35.927Z,100.00
2022-09-12T00:29:37.575Z,100.00
2022-09-12T00:32:39.147Z,100.00
2022-09-12T00:35:42.122Z,100.00
2022-09-12T00:38:45.338Z,100.00
2022-09-12T00:41:48.466Z,100.00
2022-09-12T00:44:52.273Z,100.00
2022-09-12T00:47:54.857Z,100.00
2022-09-12T00:50:56.541Z,100.00
2022-09-12T00:53:59.988Z,100.00
2022-09-12T00:57:06.605Z,100.00
2022-09-12T01:00:17.107Z,100.00
2022-09-12T01:03:22.233Z,100.00
2022-09-12T01:06:27.033Z,100.00
2022-09-12T01:09:28.621Z,100.00
2022-09-12T01:12:33.029Z,100.00
2022-09-12T01:15:37.063Z,100.00
2022-09-12T01:18:54.722Z,100.00
2022-09-12T01:22:13.712Z,100.00
2022-09-12T01:25:26.451Z,100.00
2022-09-12T01:28:45.741Z,100.00
2022-09-12T01:31:56.294Z,100.00
2022-09-12T01:35:07.106Z,100.00
2022-09-12T01:38:11.720Z,100.00
2022-09-12T01:41:24.400Z,100.00
2022-09-12T01:44:35.271Z,100.00
2022-09-12T01:47:44.460Z,100.00
2022-09-12T01:50:52.346Z,100.00
2022-09-12T01:53:59.758Z,100.00
2022-09-12T01:57:07.397Z,100.00
2022-09-12T02:00:12.897Z,100.00
2022-09-12T02:03:24.327Z,100.00
2022-09-12T02:06:30.997Z,100.00
2022-09-12T02:09:36.450Z,100.00
2022-09-12T02:12:44.746Z,100.00
2022-09-12T02:15:52.576Z,100.00
2022-09-12T02:18:59.663Z,100.00
2022-09-12T02:22:04.305Z,100.00
2022-09-12T02:25:10.384Z,100.00
2022-09-12T02:28:16.181Z,100.00
2022-09-12T02:31:24.445Z,100.00
2022-09-12T02:34:42.054Z,100.00
2022-09-12T02:37:56.035Z,100.00
2022-09-12T02:40:57.917Z,100.00
2022-09-12T02:43:59.624Z,100.00
2022-09-12T02:47:06.006Z,100.00
2022-09-12T02:50:10.069Z,100.00
2022-09-12T02:53:11.881Z,100.00
2022-09-12T02:56:23.523Z,100.00
2022-09-12T02:59:25.854Z,100.00
2022-09-12T03:02:35.979Z,100.00
2022-09-12T03:05:47.153Z,100.00
2022-09-12T03:09:01.353Z,100.00
2022-09-12T03:12:11.711Z,100.00
2022-09-12T03:15:28.329Z,100.00
2022-09-12T03:18:43.550Z,100.00
2022-09-12T03:21:52.989Z,100.00
2022-09-12T03:25:03.449Z,100.00
2022-09-12T03:28:08.148Z,100.00
2022-09-12T03:31:13.623Z,100.00
2022-09-12T03:34:15.248Z,100.00
2022-09-12T03:37:18.261Z,100.00
2022-09-12T03:40:20.273Z,100.00
2022-09-12T03:43:22.133Z,100.00
2022-09-12T03:46:23.724Z,100.00
2022-09-12T03:49:25.395Z,100.00
2022-09-12T03:52:28.475Z,100.00
2022-09-12T03:55:31.013Z,100.00
2022-09-12T03:58:33.774Z,100.00
2022-09-12T04:01:35.401Z,100.00
2022-09-12T04:04:37.011Z,100.00
2022-09-12T04:07:40.068Z,100.00
2022-09-12T04:10:41.724Z,100.00
2022-09-12T04:13:45.179Z,100.00
2022-09-12T04:16:46.972Z,100.00
2022-09-12T04:19:48.636Z,100.00
2022-09-12T04:22:51.601Z,100.00
2022-09-12T04:25:54.344Z,100.00
2022-09-12T04:28:57.567Z,100.00
2022-09-12T04:31:59.366Z,100.00
2022-09-12T04:35:00.955Z,100.00
2022-09-12T04:38:03.897Z,100.00
2022-09-12T04:41:12.210Z,100.00
2022-09-12T04:44:15.333Z,100.00
2022-09-12T04:47:17.019Z,100.00
2022-09-12T04:50:18.817Z,100.00
2022-09-12T04:53:21.818Z,100.00
2022-09-12T04:56:23.670Z,100.00
2022-09-12T04:59:25.310Z,100.00
2022-09-12T05:02:27.148Z,100.00
2022-09-12T05:05:28.792Z,100.00
2022-09-12T05:08:31.803Z,100.00
2022-09-12T05:14:57.934Z,100.00
2022-09-12T05:17:59.566Z,100.00
2022-09-12T05:21:02.719Z,100.00
2022-09-12T05:24:06.623Z,100.00
2022-09-12T05:27:08.280Z,100.00
2022-09-12T05:30:11.589Z,100.00
2022-09-12T05:33:13.410Z,100.00
2022-09-12T05:36:17.790Z,100.00
2022-09-12T05:39:20.788Z,100.00
2022-09-12T05:42:23.402Z,100.00
2022-09-12T05:45:26.999Z,100.00
2022-09-12T05:48:28.984Z,100.00
2022-09-12T05:51:34.059Z,100.00
2022-09-12T05:54:37.094Z,100.00
2022-09-12T05:57:39.356Z,100.00
2022-09-12T06:00:41.039Z,100.00
2022-09-12T06:03:44.623Z,100.00
2022-09-12T06:06:46.679Z,100.00
2022-09-12T06:09:49.967Z,100.00
2022-09-12T06:12:51.682Z,100.00
2022-09-12T06:15:54.119Z,100.00
2022-09-12T06:18:57.800Z,100.00
2022-09-12T06:21:59.388Z,100.00
2022-09-12T06:25:02.999Z,100.00
2022-09-12T06:28:04.652Z,100.00
2022-09-12T06:31:08.221Z,100.00
2022-09-12T06:34:12.444Z,100.00
2022-09-12T06:37:14.508Z,100.00
2022-09-12T06:40:18.003Z,100.00
2022-09-12T06:43:19.914Z,100.00
2022-09-12T06:46:23.788Z,100.00
2022-09-12T06:49:25.498Z,100.00
2022-09-12T06:52:29.061Z,100.00
2022-09-12T06:55:32.035Z,100.00
2022-09-12T06:58:34.507Z,100.00
2022-09-12T07:01:36.222Z,100.00
2022-09-12T07:04:37.843Z,100.00
2022-09-12T07:07:39.517Z,100.00
2022-09-12T07:10:42.507Z,100.00
2022-09-12T07:13:47.551Z,100.00
2022-09-12T07:16:49.280Z,100.00
2022-09-12T07:19:50.897Z,100.00
2022-09-12T07:22:52.557Z,100.00
2022-09-12T07:25:57.095Z,100.00
2022-09-12T07:29:18.588Z,100.00
2022-09-12T07:32:20.896Z,100.00
2022-09-12T07:35:22.522Z,100.00
2022-09-12T07:38:24.172Z,100.00
2022-09-12T07:41:29.231Z,100.00
2022-09-12T07:44:30.899Z,100.00
2022-09-12T07:47:32.591Z,100.00
2022-09-12T07:50:34.798Z,100.00
2022-09-12T07:53:38.434Z,100.00
2022-09-12T07:56:41.693Z,100.00
2022-09-12T07:59:53.050Z,100.00
2022-09-12T08:02:55.107Z,100.00
2022-09-12T08:06:03.218Z,100.00
2022-09-12T08:09:05.475Z,100.00
2022-09-12T08:12:08.578Z,100.00
2022-09-12T08:15:10.711Z,100.00
2022-09-12T08:18:12.494Z,100.00
2022-09-12T08:21:16.827Z,100.00
2022-09-12T08:24:18.557Z,100.00
2022-09-12T08:27:21.505Z,100.00
2022-09-12T08:30:23.152Z,100.00
2022-09-12T08:33:27.294Z,100.00
2022-09-12T08:36:29.531Z,100.00
2022-09-12T08:39:33.180Z,100.00
2022-09-12T08:42:50.495Z,100.00
2022-09-12T08:46:00.735Z,100.00
2022-09-12T08:49:04.248Z,100.00
2022-09-12T08:52:10.510Z,100.00
2022-09-12T08:55:27.476Z,100.00
2022-09-12T08:58:39.432Z,100.00
2022-09-12T09:01:43.429Z,100.00
2022-09-12T09:04:51.583Z,100.00
2022-09-12T09:08:21.038Z,100.00
2022-09-12T09:11:37.543Z,100.00
2022-09-12T09:14:56.300Z,100.00
2022-09-12T09:18:04.150Z,100.00
2022-09-12T09:21:14.831Z,100.00
2022-09-12T09:24:21.992Z,100.00
2022-09-12T09:27:40.428Z,100.00
2022-09-12T09:30:45.102Z,100.00
2022-09-12T09:33:48.706Z,100.00
2022-09-12T09:36:52.116Z,100.00
2022-09-12T09:40:06.476Z,100.00
2022-09-12T09:43:20.212Z,100.00
2022-09-12T09:46:23.494Z,100.00
2022-09-12T09:49:27.009Z,100.00
2022-09-12T09:52:30.796Z,100.00
2022-09-12T09:55:39.912Z,100.00
2022-09-12T09:58:41.644Z,100.00
2022-09-12T10:01:51.602Z,100.00
2022-09-12T10:04:55.367Z,100.00
2022-09-12T10:07:57.052Z,100.00
2022-09-12T10:11:02.479Z,100.00
2022-09-12T10:14:04.635Z,100.00
2022-09-12T10:17:33.153Z,100.00
2022-09-12T10:20:39.476Z,100.00
2022-09-12T10:23:42.574Z,100.00
2022-09-12T10:26:51.384Z,100.00
2022-09-12T10:30:01.715Z,100.00
2022-09-12T10:33:11.487Z,100.00
2022-09-12T10:36:14.608Z,100.00
2022-09-12T10:39:19.280Z,100.00
2022-09-12T10:42:46.371Z,100.00
2022-09-12T10:45:48.024Z,100.00
2022-09-12T10:48:53.059Z,100.00
2022-09-12T10:51:56.452Z,100.00
2022-09-12T10:54:58.263Z,100.00
2022-09-12T10:58:13.811Z,100.00
2022-09-12T11:01:28.520Z,100.00
2022-09-12T11:04:46.217Z,100.00
2022-09-12T11:07:51.996Z,100.00
2022-09-12T11:10:59.798Z,100.00
2022-09-12T11:14:17.407Z,100.00
2022-09-12T11:17:34.307Z,100.00
2022-09-12T11:21:02.986Z,100.00
2022-09-12T11:24:29.375Z,100.00
2022-09-12T11:27:43.653Z,100.00
2022-09-12T11:31:04.726Z,100.00
2022-09-12T11:34:09.563Z,100.00
2022-09-12T11:37:33.949Z,100.00
2022-09-12T11:40:42.367Z,100.00
2022-09-12T11:43:48.848Z,100.00
2022-09-12T11:46:52.089Z,100.00
2022-09-12T11:49:55.588Z,100.00
2022-09-12T11:53:06.398Z,100.00
2022-09-12T11:56:13.756Z,100.00
2022-09-12T11:59:30.915Z,100.00
2022-09-12T12:02:39.388Z,100.00
2022-09-12T12:05:50.067Z,100.00
2022-09-12T12:08:53.641Z,100.00
2022-09-12T12:11:57.928Z,100.00
2022-09-12T12:15:00.487Z,100.00
2022-09-12T12:18:05.897Z,100.00
2022-09-12T12:21:32.306Z,98.34
2022-09-12T12:24:53.253Z,100.00
2022-09-12T12:27:56.686Z,100.00
2022-09-12T12:31:00.588Z,100.00
2022-09-12T12:34:27.485Z,100.00
2022-09-12T12:37:51.954Z,100.00
2022-09-12T12:41:33.410Z,92.06
2022-09-12T12:44:50.053Z,100.00
2022-09-12T12:47:53.710Z,88.58
2022-09-12T12:51:15.923Z,94.20
2022-09-12T12:54:30.219Z,100.00
2022-09-12T12:57:51.847Z,96.15
2022-09-12T13:01:05.889Z,82.51
2022-09-12T13:04:15.482Z,78.71
2022-09-12T13:07:26.828Z,97.32
2022-09-12T13:10:30.591Z,97.15
2022-09-12T13:13:38.609Z,86.32
2022-09-12T13:16:54.004Z,83.26
2022-09-12T13:20:29.718Z,79.96
2022-09-12T13:23:32.838Z,91.75
2022-09-12T13:26:40.323Z,80.51
2022-09-12T13:29:43.287Z,76.22
2022-09-12T13:32:44.988Z,66.75
2022-09-12T13:36:11.130Z,71.63
2022-09-12T13:39:19.647Z,69.74
2022-09-12T13:42:41.153Z,74.36
2022-09-12T13:45:46.420Z,67.31
2022-09-12T13:48:49.359Z,66.85
2022-09-12T13:52:01.144Z,63.30
2022-09-12T13:55:08.940Z,68.19
2022-09-12T13:58:19.109Z,72.57
2022-09-12T14:01:23.531Z,69.18
2022-09-12T14:04:45.127Z,71.81
2022-09-12T14:07:56.063Z,77.07
2022-09-12T14:10:58.331Z,71.03
2022-09-12T14:14:06.099Z,63.32
2022-09-12T14:17:18.969Z,59.30
2022-09-12T14:20:24.287Z,59.79
2022-09-12T14:23:28.935Z,61.94
2022-09-12T14:26:34.463Z,61.91
2022-09-12T14:29:36.138Z,58.71
2022-09-12T14:32:39.191Z,56.84
2022-09-12T14:35:43.797Z,57.74
2022-09-12T14:38:50.094Z,66.40
2022-09-12T14:42:02.290Z,60.37
2022-09-12T14:45:17.057Z,54.66
2022-09-12T14:48:20.262Z,58.06
2022-09-12T14:51:25.674Z,67.77
2022-09-12T14:54:39.359Z,58.92
2022-09-12T14:57:42.007Z,53.34
2022-09-12T15:00:58.542Z,54.51
2022-09-12T15:04:01.732Z,52.64
2022-09-12T15:07:14.644Z,55.55
2022-09-12T15:10:22.806Z,72.43
2022-09-12T15:13:25.950Z,55.66
2022-09-12T15:16:27.689Z,63.58
2022-09-12T15:19:30.974Z,68.12
2022-09-12T15:22:34.540Z,67.47
2022-09-12T15:25:36.417Z,55.56
2022-09-12T15:28:38.046Z,65.90
2022-09-12T15:31:40.325Z,55.59
2022-09-12T15:34:43.323Z,58.71
2022-09-12T15:37:45.166Z,58.12
2022-09-12T15:40:52.502Z,56.17
2022-09-12T15:43:54.171Z,54.03
2022-09-12T15:46:55.798Z,58.88
2022-09-12T15:49:58.781Z,57.25
2022-09-12T15:53:00.380Z,56.92
2022-09-12T15:56:02.456Z,61.70
2022-09-12T15:59:04.950Z,57.13
2022-09-12T16:02:06.871Z,55.62
2022-09-12T16:05:14.923Z,54.21
2022-09-12T16:08:16.601Z,56.85
2022-09-12T16:11:21.378Z,55.85
2022-09-12T16:14:23.156Z,62.86
2022-09-12T16:17:24.766Z,58.81
2022-09-12T16:20:27.738Z,67.40
2022-09-12T16:23:29.550Z,57.74
2022-09-12T16:26:31.209Z,66.61
2022-09-12T16:29:32.877Z,67.95
2022-09-12T16:32:34.765Z,62.09
2022-09-12T16:35:37.842Z,62.57
2022-09-12T16:38:43.219Z,59.75
2022-09-12T16:41:44.884Z,72.77
2022-09-12T16:44:46.996Z,61.35
2022-09-12T16:47:48.690Z,58.04
2022-09-12T16:50:57.422Z,65.85
2022-09-12T16:53:59.242Z,74.06
2022-09-12T16:57:00.945Z,79.48
2022-09-12T17:00:03.541Z,91.06
2022-09-12T17:03:05.161Z,100.00
2022-09-12T17:06:09.928Z,100.00
2022-09-12T17:09:13.090Z,97.50
2022-09-12T17:12:15.027Z,100.00
2022-09-12T17:15:16.642Z,100.00
2022-09-12T17:18:18.756Z,100.00
2022-09-12T17:21:21.998Z,100.00
2022-09-12T17:24:23.826Z,100.00
2022-09-12T17:27:25.451Z,100.00
2022-09-12T17:30:27.108Z,100.00
2022-09-12T17:33:29.796Z,100.00
2022-09-12T17:36:33.954Z,100.00
2022-09-12T17:39:35.465Z,100.00
2022-09-12T17:42:37.222Z,100.00
2022-09-12T17:45:39.275Z,100.00
2022-09-12T17:48:41.608Z,100.00
2022-09-12T17:51:45.342Z,100.00
2022-09-12T17:54:46.924Z,100.00
2022-09-12T17:57:49.059Z,100.00
2022-09-12T18:01:09.585Z,100.00
2022-09-12T18:04:11.478Z,100.00
2022-09-12T18:07:15.776Z,100.00
2022-09-12T18:10:17.341Z,100.00
2022-09-12T18:13:19.141Z,100.00
2022-09-12T18:16:20.983Z,100.00
2022-09-12T18:19:23.482Z,100.00
2022-09-12T18:22:26.494Z,100.00
2022-09-12T18:25:28.159Z,100.00
2022-09-12T18:28:32.214Z,100.00
2022-09-12T18:31:33.986Z,100.00
2022-09-12T18:34:35.711Z,100.00
2022-09-12T18:37:40.146Z,100.00
2022-09-12T18:40:41.622Z,100.00
2022-09-12T18:43:43.714Z,100.00
2022-09-12T18:46:45.549Z,100.00
2022-09-12T18:49:47.252Z,100.00
2022-09-12T18:52:51.680Z,100.00
2022-09-12T18:55:53.237Z,100.00
2022-09-12T18:58:56.335Z,100.00
2022-09-12T19:01:58.055Z,100.00
2022-09-12T19:04:59.765Z,100.00
2022-09-12T19:08:03.391Z,100.00
2022-09-12T19:11:05.662Z,100.00
2022-09-12T19:14:07.869Z,100.00
2022-09-12T19:17:10.054Z,100.00
2022-09-12T19:20:11.711Z,100.00
2022-09-12T19:23:14.703Z,100.00
2022-09-12T19:26:18.250Z,100.00
2022-09-12T19:29:19.930Z,100.00
2022-09-12T19:32:21.607Z,100.00
2022-09-12T19:35:23.242Z,100.00
2022-09-12T19:38:26.488Z,100.00
2022-09-12T19:41:28.714Z,100.00
2022-09-12T19:44:30.490Z,100.00
2022-09-12T19:47:32.140Z,100.00
2022-09-12T19:50:33.846Z,100.00
2022-09-12T19:53:38.228Z,100.00
2022-09-12T19:56:39.772Z,100.00
2022-09-12T19:59:41.412Z,100.00
2022-09-12T20:02:43.140Z,100.00
2022-09-12T20:05:44.845Z,100.00
2022-09-12T20:08:48.293Z,100.00
2022-09-12T20:11:50.460Z,100.00
2022-09-12T20:14:52.254Z,100.00
2022-09-12T20:17:55.003Z,100.00
2022-09-12T20:20:56.667Z,100.00
2022-09-12T20:24:01.830Z,100.00
2022-09-12T20:27:03.827Z,100.00
2022-09-12T20:30:06.697Z,100.00
2022-09-12T20:33:08.390Z,100.00
2022-09-12T20:36:12.877Z,100.00
2022-09-12T20:39:17.595Z,100.00
2022-09-12T20:42:19.314Z,100.00
2022-09-12T20:45:20.947Z,100.00
2022-09-12T20:48:22.608Z,100.00
2022-09-12T20:51:26.623Z,100.00
2022-09-12T20:54:29.655Z,100.00
2022-09-12T20:57:31.413Z,100.00
2022-09-12T21:00:33.069Z,100.00
2022-09-12T21:03:36.666Z,100.00
2022-09-12T21:06:38.271Z,100.00
2022-09-12T21:09:41.378Z,100.00
2022-09-12T21:12:43.006Z,100.00
2022-09-12T21:15:45.098Z,100.00
2022-09-12T21:18:47.593Z,100.00
2022-09-12T21:21:49.293Z,100.00
2022-09-12T21:24:52.323Z,100.00
2022-09-12T21:27:53.922Z,100.00
2022-09-12T21:30:55.935Z,100.00
2022-09-12T21:33:57.673Z,100.00
2022-09-12T21:36:59.291Z,100.00
2022-09-12T21:40:03.221Z,100.00
2022-09-12T21:43:08.138Z,100.00
2022-09-12T21:46:12.317Z,100.00
2022-09-12T21:49:14.029Z,100.00
2022-09-12T21:52:15.713Z,100.00
2022-09-12T21:55:19.477Z,100.00
2022-09-12T21:58:21.069Z,100.00
2022-09-12T22:01:22.779Z,100.00
2022-09-12T22:04:25.066Z,100.00
2022-09-12T22:07:26.772Z,100.00
2022-09-12T22:10:31.168Z,100.00
2022-09-12T22:13:33.652Z,100.00
2022-09-12T22:16:35.399Z,100.00
2022-09-12T22:19:37.265Z,100.00
2022-09-12T22:22:57.630Z,100.00
2022-09-12T22:26:02.179Z,100.00
2022-09-12T22:29:04.023Z,100.00
2022-09-12T22:32:05.637Z,100.00
2022-09-12T22:35:08.105Z,100.00
2022-09-12T22:38:09.783Z,100.00
2022-09-12T22:41:13.168Z,100.00
2022-09-12T22:44:14.937Z,100.00
2022-09-12T22:47:16.618Z,100.00
2022-09-12T22:50:18.250Z,100.00
2022-09-12T22:53:19.832Z,100.00
2022-09-12T22:56:23.279Z,100.00
2022-09-12T22:59:24.990Z,100.00
2022-09-12T23:02:26.621Z,100.00
2022-09-12T23:05:28.278Z,100.00
2022-09-12T23:08:30.119Z,100.00
2022-09-12T23:11:33.081Z,100.00
2022-09-12T23:14:34.800Z,100.00
2022-09-12T23:17:36.419Z,100.00
2022-09-12T23:20:38.015Z,100.00
2022-09-12T23:23:40.105Z,100.00
2022-09-12T23:26:43.173Z,100.00
2022-09-12T23:29:44.800Z,100.00
2022-09-12T23:32:46.545Z,100.00
2022-09-12T23:35:48.375Z,100.00
2022-09-12T23:38:50.142Z,100.00
2022-09-12T23:41:53.222Z,100.00
2022-09-12T23:44:54.841Z,100.00
2022-09-12T23:47:56.568Z,100.00
2022-09-12T23:50:58.207Z,100.00
2022-09-12T23:53:59.960Z,100.00
2022-09-12T23:57:03.036Z,100.00
